Tiempo atmosférico en la estación meteorológica de Bustillo del Páramo, León (850 m.)

Fecha
DESCASC
Temp. máxima en grados centígrados (hora)
DESCASC
Temp. mínima en grados centígrados (hora)
DESCASC
Temp. media en grados centígrados
DESCASC
Racha de viento máxima en m/sg (hora)
DESCASC
Velocidad máxima media en intervalos de 10 minutos(hora)
DESCASC
Precipitaciones diarias en mm
DESCASC
Precipitaciones de 00:00 a 06:00 en mm
DESCASC
Precipitaciones de 06:00 a 12:00 en mm
DESCASC
Precipitaciones de 12:00 a 18:00 en mm
DESCASC
Precipitaciones de 18:00 a 24:00 en mm
DESCASC
17-08-2017 32.1 (18:30) 12.6 (07:40) 22.3 6.11 (19:30) 3.89 (21:50) 0 0 0 0 0
16-08-2017 29.3 (19:10) 11.5 (07:30) 20.4 6.11 (10:10) 3.89 (09:30) 0 0 0 0 0
15-08-2017 30 (18:00) 14.2 (00:00) 22.1 9.17 (20:00) 6.11 (19:30) 0 0 0 0 0
14-08-2017 31.8 (17:00) 11.7 (07:50) 21.7 10.28 (17:40) 6.67 (18:00) 0 0 0 0 0
13-08-2017 30 (18:20) 10.3 (00:00) 20.2 5.83 (16:00) 3.61 (07:00) 0 0 0 0 0
12-08-2017 28.3 (18:50) 8.5 (00:00) 18.4 5.28 (14:50) 3.61 (22:50) 0 0 0 0 0
11-08-2017 25.6 (18:40) 8 (00:00) 16.8 6.94 (14:50) 3.61 (17:40) 0 0 0 0 0
10-08-2017 23.9 (17:30) 4.6 (00:00) 14.2 8.61 (18:30) 5 (18:30) 0 0 0 0 0
09-08-2017 18.5 (15:50) 7.1 (00:00) 12.8 12.5 (18:10) 8.33 (18:10) 0 0 0 0 0
08-08-2017 23.4 (18:10) 8.4 (00:00) 15.9 9.44 (20:40) 5.56 (02:30) 0 0 0 0 0
07-08-2017 26.9 (16:20) 10.6 (00:00) 18.8 10.83 (17:20) 7.22 (17:20) 0 0 0 0 0
06-08-2017 27.6 (17:30) 10.5 (00:00) 19.1 7.78 (17:00) 4.44 (23:20) 0 0 0 0 0
05-08-2017 30.1 (16:40) 15.2 (00:00) 22.7 11.94 (18:40) 7.5 (18:30) 0 0 0 0 0
04-08-2017 32.4 (18:10) 17.1 (00:00) 24.8 11.67 (10:10) 7.78 (10:00) 0 0 0 0 0
03-08-2017 31.1 (18:30) 15.2 (00:00) 23.2 10.28 (19:40) 7.78 (20:10) 0 0 0 0 0
02-08-2017 30.2 (19:20) 9.4 (00:00) 19.8 9.72 (16:40) 4.17 (17:50) 0 0 0 0 0
01-08-2017 27 (19:00) 11.5 (00:00) 19.3 7.78 (20:30) 5.28 (19:20) 0 0 0 0 0
31-07-2017 21.9 (19:30) 10.7 (00:00) 16.3 5.83 (00:10) 3.89 (00:10) 0 0 0 0 0
30-07-2017 28 (16:30) 13.1 (00:00) 20.6 9.72 (18:00) 6.39 (05:00) 0 0 0 0 0
29-07-2017 30.5 (18:40) 15.4 (00:00) 22.9 9.17 (19:50) 5.83 (19:50) 0.2 0 0 0.2 0
28-07-2017 30.7 (18:50) 12.3 (00:00) 21.5 9.17 (00:20) 6.94 (00:20) 0 0 0 0 0
27-07-2017 31.4 (17:30) 11.7 (00:00) 21.5 13.06 (19:50) 9.17 (19:50) 0 0 0 0 0
26-07-2017 31.2 (18:10) 10.7 (00:00) 21 8.61 (19:00) 5.28 (19:00) 0 0 0 0 0
25-07-2017 27.2 (18:20) 8.7 (00:00) 18 8.61 (21:00) 4.72 (19:00) 0 0 0 0 0
24-07-2017 25.7 (15:40) 12.8 (00:00) 19.3 11.39 (17:20) 6.94 (17:20) 0 0 0 0 0
23-07-2017 28.4 (16:40) 10.3 (00:00) 19.3 11.94 (20:40) 7.5 (20:30) 0 0 0 0 0
22-07-2017 26.1 (18:10) 12.6 (00:00) 19.4 10 (19:00) 6.11 (05:30) 0 0 0 0 0

Gráficas

Temp. máximas Temp. mínimas Temp. medias Precipitaciones Rachas de viento máximas Velocidades máximas media en intervalos de 10 minutos

Datos horarios

Fecha y hora oficial Temperatura (ºC) Velocidad del viento (km/h) Dirección del viento Racha (km/h) Dirección de racha Precipitación (mm) Presión (hPa) Tendencia (hPa) Humedad (%)
2017-08-20 23:00:00 19.3 8 Este 15 Este 0 -- -- 59
2017-08-20 22:00:00 21.1 8 Noroeste 10 Oeste 0 -- -- 60
2017-08-20 21:00:00 26.2 9 Oeste 13 Oeste 0 -- -- 43
2017-08-20 20:00:00 29.6 4 Sudoeste 12 Sudoeste 0 -- -- 29
2017-08-20 19:00:00 29.7 7 Sudoeste 13 Sur 0 -- -- 28
2017-08-20 18:00:00 29.5 8 Sur 14 Sudeste 0 -- -- 27
2017-08-20 17:00:00 29 9 Sur 20 Sur 0 -- -- 26
2017-08-20 16:00:00 27.7 12 Sur 20 Sur 0 -- -- 30
2017-08-20 15:00:00 26.1 10 Sur 23 Sur 0 -- -- 33
2017-08-20 14:00:00 25.3 10 Sur 17 Sur 0 -- -- 34
2017-08-20 13:00:00 23.4 4 Sudeste 15 Este 0 -- -- 38
2017-08-20 12:00:00 21.3 9 Sur 16 Sudeste 0 -- -- 38
2017-08-20 11:00:00 19 10 Este 15 Este 0 -- -- 48
2017-08-20 10:00:00 15.9 3 Sudeste 6 Sudeste 0 -- -- 68
2017-08-20 09:00:00 12.9 0 Calma 5 Noroeste 0 -- -- 78
2017-08-20 08:00:00 9.7 5 Noroeste 7 Norte 0 -- -- 88
2017-08-20 07:00:00 9.9 7 Norte 10 Norte 0 -- -- 87
2017-08-20 06:00:00 10.6 7 Norte 9 Norte 0 -- -- 88
2017-08-20 05:00:00 11.9 3 Nordeste 6 Norte 0 -- -- 89
2017-08-20 04:00:00 12.7 2 Nordeste 4 Nordeste 0 -- -- 86
2017-08-20 03:00:00 13.4 2 Noroeste 8 Sudeste 0 -- -- 85
2017-08-20 02:00:00 15 6 Este 12 Este 0 -- -- 78
2017-08-20 01:00:00 16.1 8 Nordeste 10 Este 0 -- -- 68
2017-08-20 00:00:00 17.6 6 Nordeste 17 Este 0 -- -- 54
2017-08-19 23:00:00 20.4 13 Nordeste 26 Nordeste 0 -- -- 40
2017-08-19 22:00:00 20.8 4 Norte 8 Noroeste 0 -- -- 58
2017-08-19 21:00:00 25.4 5 Sudeste 10 Sur 0 -- -- 40
2017-08-19 20:00:00 27.8 8 Sur 13 Sur 0 -- -- 34
2017-08-19 19:00:00 28.7 7 Sur 13 Sur 0 -- -- 28
2017-08-19 18:00:00 28.2 8 Sudeste 14 Este 0 -- -- 28
2017-08-19 17:00:00 27.7 5 Sur 10 Oeste 0 -- -- 30
2017-08-19 16:00:00 26.5 6 Sudoeste 22 Este 0 -- -- 34
2017-08-19 15:00:00 24.7 4 Sudeste 9 Oeste 0 -- -- 40
2017-08-19 14:00:00 23.5 5 Norte 13 Sudoeste 0 -- -- 49
2017-08-19 13:00:00 21.6 4 Oeste 12 Oeste 0 -- -- 53
2017-08-19 12:00:00 20.5 4 Este 12 Este 0 -- -- 57
2017-08-19 11:00:00 18.8 6 Este 17 Este 0 -- -- 66
2017-08-19 10:00:00 17.3 8 Este 15 Este 0 -- -- 75
2017-08-19 09:00:00 13.7 4 Noroeste 8 Norte 0 -- -- 89
2017-08-19 08:00:00 11.5 8 Noroeste 11 Noroeste 0 -- -- 92
2017-08-19 07:00:00 12.4 5 Norte 6 Norte 0 -- -- 91
2017-08-19 06:00:00 12.9 4 Este 10 Este 0 -- -- 90
2017-08-19 05:00:00 13 6 Nordeste 9 Nordeste 0 -- -- 87
2017-08-19 04:00:00 14 5 Nordeste 7 Norte 0 -- -- 84
2017-08-19 03:00:00 14.3 6 Este 10 Norte 0 -- -- 84
2017-08-19 02:00:00 15.1 6 Nordeste 10 Nordeste 0 -- -- 83
2017-08-19 01:00:00 16.2 5 Nordeste 11 Norte 0 -- -- 81
2017-08-19 00:00:00 17.8 6 Nordeste 16 Nordeste 0 -- -- 74
2017-08-18 23:00:00 19.2 9 Nordeste 19 Nordeste 0 -- -- 68
2017-08-18 22:00:00 21.2 8 Norte 31 Norte 0 -- -- 60
2017-08-18 21:00:00 24.1 13 Noroeste 25 Oeste 0 -- -- 43
2017-08-18 20:00:00 27.7 11 Noroeste 19 Noroeste 0 -- -- 31
2017-08-18 19:00:00 29.4 7 Noroeste 21 Noroeste 0 -- -- 30
2017-08-18 18:00:00 29.6 13 Oeste 27 Noroeste 0 -- -- 29
2017-08-18 17:00:00 29.7 15 Oeste 25 Oeste 0 -- -- 29
2017-08-18 16:00:00 28.9 8 Norte 20 Oeste 0 -- -- 36
2017-08-18 15:00:00 27.8 8 Oeste 19 Oeste 0 -- -- 36
2017-08-18 14:00:00 26.5 13 Oeste 23 Oeste 0 -- -- 44
2017-08-18 13:00:00 24.6 6 Oeste 16 Oeste 0 -- -- 48
2017-08-18 12:00:00 23.2 7 Noroeste 15 Oeste 0 -- -- 51
2017-08-18 11:00:00 21 11 Noroeste 19 Noroeste 0 -- -- 62
2017-08-18 10:00:00 19.7 10 Noroeste 28 Noroeste 0 -- -- 66
2017-08-18 09:00:00 17.1 19 Noroeste 27 Noroeste 0 -- -- 78
2017-08-18 08:00:00 16.3 16 Noroeste 37 Noroeste 0 -- -- 79
2017-08-18 07:00:00 16.8 26 Noroeste 36 Noroeste 0 -- -- 78
2017-08-18 06:00:00 17.6 25 Noroeste 38 Noroeste 0 -- -- 78
2017-08-18 05:00:00 17.7 13 Noroeste 31 Oeste 0 -- -- 76
2017-08-18 04:00:00 18.3 15 Noroeste 28 Noroeste 0 -- -- 69
2017-08-18 03:00:00 18 14 Norte 28 Noroeste 0 -- -- 60
2017-08-18 02:00:00 19.9 17 Noroeste 27 Noroeste 0 -- -- 53
2017-08-18 01:00:00 21.4 19 Noroeste 27 Oeste 0 -- -- 47
2017-08-18 00:00:00 20.6 12 Noroeste 16 Noroeste 0 -- -- 47
2017-08-17 23:00:00 21.3 14 Noroeste 17 Noroeste 0 -- -- 41
2017-08-17 22:00:00 22.9 12 Noroeste 17 Noroeste 0 -- -- 38
2017-08-17 21:00:00 27.7 8 Noroeste 18 Noroeste 0 -- -- 35
2017-08-17 20:00:00 30.6 9 Noroeste 22 Noroeste 0 -- -- 28
2017-08-17 19:00:00 32.1 10 Oeste 19 Oeste 0 -- -- 25
2017-08-17 18:00:00 31.6 4 Sudoeste 21 Sur 0 -- -- 33
2017-08-17 17:00:00 31.1 9 Sur 20 Sudeste 0 -- -- 33
2017-08-17 16:00:00 30 6 Sudeste 17 Sudoeste 0 -- -- 37
2017-08-17 15:00:00 29.4 7 Sudeste 17 Sur 0 -- -- 38
2017-08-17 14:00:00 27.8 7 Sudeste 14 Sudeste 0 -- -- 41
2017-08-17 13:00:00 26.6 4 Sudoeste 10 Oeste 0 -- -- 45
2017-08-17 12:00:00 24.3 5 Oeste 9 Oeste 0 -- -- 51
2017-08-17 11:00:00 22.4 5 Noroeste 10 Oeste 0 -- -- 59
2017-08-17 10:00:00 19.6 3 Noroeste 13 Noroeste 0 -- -- 67
2017-08-17 09:00:00 15.7 6 Noroeste 14 Noroeste 0 -- -- 81
2017-08-17 08:00:00 13.1 8 Norte 14 Norte 0 -- -- 91
2017-08-17 07:00:00 12.8 8 Norte 10 Norte 0 -- -- 90
2017-08-17 06:00:00 13.8 6 Norte 8 Norte 0 -- -- 87
2017-08-17 05:00:00 14.5 2 Este 9 Norte 0 -- -- 87
2017-08-17 04:00:00 15 6 Nordeste 11 Norte 0 -- -- 85
2017-08-17 03:00:00 15.7 9 Norte 12 Noroeste 0 -- -- 82
2017-08-17 02:00:00 16.6 7 Norte 8 Norte 0 -- -- 80
2017-08-17 01:00:00 18.5 7 Norte 12 Norte 0 -- -- 72
2017-08-17 00:00:00 19.3 10 Norte 13 Nordeste 0 -- -- 67
2017-08-16 23:00:00 20.7 10 Noroeste 18 Oeste 0 -- -- 60
2017-08-16 22:00:00 22.1 12 Oeste 15 Oeste 0 -- -- 55
2017-08-16 21:00:00 26.6 10 Noroeste 18 Sudoeste 0 -- -- 42
2017-08-16 20:00:00 28.7 7 Sur 17 Sur 0 -- -- 35
2017-08-16 19:00:00 29.1 11 Sudeste 19 Sudeste 0 -- -- 33
2017-08-16 18:00:00 29 10 Sur 21 Sur 0 -- -- 33
2017-08-16 17:00:00 28.7 10 Sur 18 Sur 0 -- -- 30
2017-08-16 16:00:00 27.5 7 Sur 16 Sur 0 -- -- 29
2017-08-16 15:00:00 26.6 9 Sur 16 Sur 0 -- -- 32
2017-08-16 14:00:00 25.6 5 Sur 13 Sur 0 -- -- 27
2017-08-16 13:00:00 23.9 5 Norte 14 Oeste 0 -- -- 33
2017-08-16 12:00:00 21.9 8 Noroeste 17 Noroeste 0 -- -- 45
2017-08-16 11:00:00 19.2 9 Noroeste 22 Noroeste 0 -- -- 61
2017-08-16 10:00:00 17.2 12 Noroeste 21 Noroeste 0 -- -- 72
2017-08-16 09:00:00 14.5 12 Noroeste 18 Noroeste 0 -- -- 81
2017-08-16 08:00:00 12.3 10 Norte 14 Norte 0 -- -- 89
2017-08-16 07:00:00 11.7 6 Noroeste 9 Noroeste 0 -- -- 89
2017-08-16 06:00:00 12.8 5 Noroeste 8 Norte 0 -- -- 86
2017-08-16 05:00:00 13.7 2 Oeste 9 Oeste 0 -- -- 87
2017-08-16 04:00:00 14.1 0 Calma 9 Noroeste 0 -- -- 83
2017-08-16 03:00:00 15.7 7 Noroeste 14 Noroeste 0 -- -- 79
2017-08-16 02:00:00 17.4 3 Nordeste 10 Nordeste 0 -- -- 70
2017-08-16 01:00:00 18.3 7 Noroeste 15 Noroeste 0 -- -- 67
2017-08-16 00:00:00 18.8 4 Noroeste 16 Este 0 -- -- 68
2017-08-15 23:00:00 19.7 7 Norte 20 Oeste 0 -- -- 56
2017-08-15 22:00:00 21 14 Oeste 23 Oeste 0 -- -- 46
2017-08-15 21:00:00 23.9 18 Oeste 31 Oeste 0 -- -- 39
2017-08-15 20:00:00 26.3 22 Noroeste 33 Oeste 0 -- -- 34
2017-08-15 19:00:00 28.5 21 Oeste 32 Noroeste 0 -- -- 32
2017-08-15 18:00:00 30 7 Noroeste 22 Oeste 0 -- -- 26
2017-08-15 17:00:00 29.4 5 Sudeste 12 Este 0 -- -- 29
2017-08-15 16:00:00 28.8 5 Sudoeste 13 Noroeste 0 -- -- 30
2017-08-15 15:00:00 27.5 4 Sudoeste 18 Sudeste 0 -- -- 34
2017-08-15 14:00:00 26.7 8 Sur 19 Oeste 0 -- -- 37
2017-08-15 13:00:00 25.1 6 Sur 13 Sudoeste 0 -- -- 43
2017-08-15 12:00:00 22.6 4 Oeste 11 Noroeste 0 -- -- 53
2017-08-15 11:00:00 20.3 8 Noroeste 13 Noroeste 0 -- -- 63
2017-08-15 10:00:00 17.9 5 Noroeste 10 Noroeste 0 -- -- 70
2017-08-15 09:00:00 16.1 8 Noroeste 14 Noroeste 0 -- -- 78
2017-08-15 08:00:00 14.4 9 Noroeste 13 Noroeste 0 -- -- 78
2017-08-15 07:00:00 14.4 6 Norte 10 Norte 0 -- -- 83
2017-08-15 06:00:00 14.7 6 Norte 11 Noroeste 0 -- -- 80
2017-08-15 05:00:00 16.4 9 Norte 16 Noroeste 0 -- -- 75
2017-08-15 04:00:00 17.6 12 Noroeste 17 Noroeste 0 -- -- 69
2017-08-15 03:00:00 17 10 Norte 15 Norte 0 -- -- 69
2017-08-15 02:00:00 18.5 10 Noroeste 21 Noroeste 0 -- -- 67
2017-08-15 01:00:00 19.7 15 Noroeste 23 Noroeste 0 -- -- 59
2017-08-15 00:00:00 20.7 13 Noroeste 19 Noroeste 0 -- -- 52
2017-08-14 23:00:00 21.5 12 Noroeste 19 Oeste 0 -- -- 49
2017-08-14 22:00:00 22.2 10 Noroeste 26 Noroeste 0 -- -- 48
2017-08-14 21:00:00 26.3 16 Noroeste 25 Noroeste 0 -- -- 34
2017-08-14 20:00:00 28.6 13 Sudoeste 31 Sudoeste 0 -- -- 31
2017-08-14 19:00:00 30.6 13 Sudoeste 32 Sur 0 -- -- 28
2017-08-14 18:00:00 31.5 24 Sudoeste 37 Sudoeste 0 -- -- 25
2017-08-14 17:00:00 31.8 21 Sur 31 Sur 0 -- -- 24
2017-08-14 16:00:00 30.3 12 Sudeste 23 Sudeste 0 -- -- 32
2017-08-14 15:00:00 27.6 5 Sudeste 13 Sur 0 -- -- 38
2017-08-14 14:00:00 27.1 12 Sudeste 21 Sudeste 0 -- -- 37
2017-08-14 13:00:00 25.5 5 Sudeste 13 Sudeste 0 -- -- 40
2017-08-14 12:00:00 24.1 5 Sur 10 Sudeste 0 -- -- 43
2017-08-14 11:00:00 22.5 6 Sudeste 12 Este 0 -- -- 45
2017-08-14 10:00:00 20 5 Nordeste 9 Este 0 -- -- 54
2017-08-14 09:00:00 14.5 6 Norte 13 Noroeste 0 -- -- 79
2017-08-14 08:00:00 11.8 7 Norte 11 Norte 0 -- -- 87
2017-08-14 07:00:00 12 9 Norte 13 Norte 0 -- -- 85
2017-08-14 06:00:00 12.5 9 Noroeste 13 Norte 0 -- -- 83
2017-08-14 05:00:00 13.3 10 Norte 14 Noroeste 0 -- -- 81
2017-08-14 04:00:00 13.7 12 Noroeste 17 Noroeste 0 -- -- 82
2017-08-14 03:00:00 14.5 6 Norte 11 Norte 0 -- -- 77
2017-08-14 02:00:00 15.6 10 Norte 14 Noroeste 0 -- -- 69
2017-08-14 01:00:00 17.1 9 Norte 17 Nordeste 0 -- -- 63
2017-08-14 00:00:00 17.3 10 Norte 19 Norte 0 -- -- 62
2017-08-13 23:00:00 20.7 8 Nordeste 15 Norte 0 -- -- 55
2017-08-13 22:00:00 22.9 6 Este 10 Sudeste 0 -- -- 49
2017-08-13 21:00:00 26 6 Sudeste 11 Sudeste 0 -- -- 38
2017-08-13 20:00:00 28.2 8 Sudeste 15 Sudeste 0 -- -- 31
2017-08-13 19:00:00 29.4 11 Sudeste 17 Sudeste 0 -- -- 27
2017-08-13 18:00:00 29.7 7 Sudeste 14 Este 0 -- -- 25
2017-08-13 17:00:00 29.7 9 Sur 18 Sudeste 0 -- -- 23
2017-08-13 16:00:00 29.1 10 Sur 21 Sur 0 -- -- 25
2017-08-13 15:00:00 27.8 8 Sudeste 15 Sur 0 -- -- 29
2017-08-13 14:00:00 26.9 9 Sur 17 Este 0 -- -- 31
2017-08-13 13:00:00 25.5 5 Sudeste 16 Este 0 -- -- 32
2017-08-13 12:00:00 24 5 Este 14 Este 0 -- -- 33
2017-08-13 11:00:00 21.7 4 Norte 13 Noroeste 0 -- -- 41
2017-08-13 10:00:00 18.3 10 Noroeste 19 Noroeste 0 -- -- 54
2017-08-13 09:00:00 13.7 10 Norte 15 Noroeste 0 -- -- 72
2017-08-13 08:00:00 10.9 8 Noroeste 18 Noroeste 0 -- -- 84
2017-08-13 07:00:00 10.6 13 Norte 19 Norte 0 -- -- 83
2017-08-13 06:00:00 10.5 8 Norte 14 Norte 0 -- -- 86
2017-08-13 05:00:00 11.2 9 Noroeste 12 Norte 0 -- -- 83
2017-08-13 04:00:00 12.4 7 Norte 8 Norte 0 -- -- 83
2017-08-13 03:00:00 13.8 0 Calma 8 Este 0 -- -- 79
2017-08-13 02:00:00 14.8 6 Este 11 Sudeste 0 -- -- 69
2017-08-13 01:00:00 15.3 9 Norte 14 Norte 0 -- -- 69
2017-08-13 00:00:00 17.3 9 Norte 17 Norte 0 -- -- 64
2017-08-12 23:00:00 19.1 12 Nordeste 18 Nordeste 0 -- -- 56
2017-08-12 22:00:00 20.6 8 Nordeste 15 Nordeste 0 -- -- 58
2017-08-12 21:00:00 24.4 8 Sudeste 12 Sudeste 0 -- -- 38
2017-08-12 20:00:00 27.6 9 Sudeste 13 Sudeste 0 -- -- 29
2017-08-12 19:00:00 28.3 9 Sur 15 Sur 0 -- -- 28
2017-08-12 18:00:00 28.1 8 Sudeste 15 Sur 0 -- -- 25
2017-08-12 17:00:00 27.4 8 Sudeste 16 Sur 0 -- -- 24
2017-08-12 16:00:00 26.6 7 Sudeste 13 Sur 0 -- -- 31
2017-08-12 15:00:00 24.9 6 Sur 19 Sur 0 -- -- 33
2017-08-12 14:00:00 23.6 8 Sur 17 Sur 0 -- -- 34
2017-08-12 13:00:00 21.6 8 Sur 15 Sudoeste 0 -- -- 37
2017-08-12 12:00:00 20.2 4 Sur 11 Sur 0 -- -- 40
2017-08-12 11:00:00 18.2 4 Sudeste 11 Nordeste 0 -- -- 42
2017-08-12 10:00:00 16 3 Noroeste 7 Noroeste 0 -- -- 59
2017-08-12 09:00:00 12.2 5 Noroeste 9 Noroeste 0 -- -- 78
2017-08-12 08:00:00 9.1 6 Norte 9 Norte 0 -- -- 86
2017-08-12 07:00:00 9 5 Noroeste 8 Norte 0 -- -- 87
2017-08-12 06:00:00 9.8 9 Norte 10 Norte 0 -- -- 84
2017-08-12 05:00:00 10 6 Norte 11 Noroeste 0 -- -- 83
2017-08-12 04:00:00 10.7 6 Norte 10 Noroeste 0 -- -- 85
2017-08-12 03:00:00 11.8 6 Noroeste 13 Este 0 -- -- 82
2017-08-12 02:00:00 13.2 8 Este 15 Este 0 -- -- 70
2017-08-12 01:00:00 13.6 9 Este 15 Este 0 -- -- 70
2017-08-12 00:00:00 15.2 8 Nordeste 15 Nordeste 0 -- -- 55
2017-08-11 23:00:00 16.7 9 Nordeste 15 Nordeste 0 -- -- 49
2017-08-11 22:00:00 18.5 8 Nordeste 12 Nordeste 0 -- -- 58
2017-08-11 21:00:00 23 3 Sur 10 Sur 0 -- -- 40
2017-08-11 20:00:00 23.7 6 Sur 12 Sur 0 -- -- 34
2017-08-11 19:00:00 25.5 8 Sur 18 Sur 0 -- -- 27
2017-08-11 18:00:00 25.2 9 Sudeste 22 Este 0 -- -- 31
2017-08-11 17:00:00 24.1 9 Sudeste 18 Sur 0 -- -- 35
2017-08-11 16:00:00 23.1 8 Sur 16 Sur 0 -- -- 36
2017-08-11 15:00:00 21.9 8 Sur 25 Sur 0 -- -- 39
2017-08-11 14:00:00 20 4 Sur 12 Sur 0 -- -- 43
2017-08-11 13:00:00 18 6 Sur 12 Sur 0 -- -- 51
2017-08-11 12:00:00 16.1 4 Oeste 14 Sudeste 0 -- -- 58
2017-08-11 11:00:00 14 5 Sudoeste 11 Sudoeste 0 -- -- 64
2017-08-11 10:00:00 12.3 3 Oeste 9 Noroeste 0 -- -- 70
2017-08-11 09:00:00 10.2 5 Norte 9 Norte 0 -- -- 82
2017-08-11 08:00:00 8.1 4 Noroeste 7 Norte 0 -- -- 90
2017-08-11 07:00:00 8.9 0 Calma 2 Oeste 0 -- -- 89
2017-08-11 06:00:00 9.8 0 Calma 9 Sudeste 0 -- -- 83
2017-08-11 05:00:00 9.8 3 Este 5 Este 0 -- -- 84
2017-08-11 04:00:00 9.9 2 Sur 6 Este 0 -- -- 84
2017-08-11 03:00:00 10.5 4 Este 6 Este 0 -- -- 74
2017-08-11 02:00:00 10.3 4 Este 6 Nordeste 0 -- -- 75
2017-08-11 01:00:00 10.6 3 Norte 10 Este 0 -- -- 79
2017-08-11 00:00:00 12.4 5 Nordeste 15 Nordeste 0 -- -- 62
2017-08-10 23:00:00 14.2 10 Nordeste 23 Nordeste 0 -- -- 54
2017-08-10 22:00:00 15.8 10 Nordeste 21 Nordeste 0 -- -- 52
2017-08-10 21:00:00 18.6 15 Nordeste 27 Nordeste 0 -- -- 42
2017-08-10 20:00:00 20.6 15 Nordeste 28 Nordeste 0 -- -- 34
2017-08-10 19:00:00 21.7 16 Nordeste 31 Norte 0 -- -- 31
2017-08-10 18:00:00 22.9 15 Norte 27 Norte 0 -- -- 32
2017-08-10 17:00:00 23.4 4 Sur 18 Norte 0 -- -- 28
2017-08-10 16:00:00 22.9 7 Norte 17 Norte 0 -- -- 27
2017-08-10 15:00:00 21.3 7 Norte 24 Norte 0 -- -- 36
2017-08-10 14:00:00 20 8 Nordeste 24 Nordeste 0 -- -- 38
2017-08-10 13:00:00 18.7 9 Nordeste 19 Nordeste 0 -- -- 42
2017-08-10 12:00:00 17.5 9 Nordeste 22 Nordeste 0 -- -- 46
2017-08-10 11:00:00 16.2 10 Nordeste 22 Norte 0 -- -- 50
2017-08-10 10:00:00 13.6 13 Norte 22 Noroeste 0 -- -- 59
2017-08-10 09:00:00 9.3 6 Norte 16 Noroeste 0 -- -- 79
2017-08-10 08:00:00 5.8 8 Noroeste 12 Noroeste 0 -- -- 88
2017-08-10 07:00:00 4.9 5 Norte 9 Noroeste 0 -- -- 89
2017-08-10 06:00:00 5.3 4 Noroeste 5 Noroeste 0 -- -- 89
2017-08-10 05:00:00 5.7 0 Calma 4 Noroeste 0 -- -- 87
2017-08-10 04:00:00 6.6 3 Norte 6 Norte 0 -- -- 86
2017-08-10 03:00:00 6.8 4 Noroeste 9 Norte 0 -- -- 83
2017-08-10 02:00:00 7.7 6 Norte 10 Norte 0 -- -- 79
2017-08-10 01:00:00 7.9 5 Noroeste 6 Noroeste 0 -- -- 84
2017-08-10 00:00:00 8.6 5 Norte 8 Norte 0 -- -- 79
2017-08-09 23:00:00 9.6 6 Norte 13 Norte 0 -- -- 71
2017-08-09 22:00:00 11.5 10 Norte 33 Norte 0 -- -- 60
2017-08-09 21:00:00 13.8 24 Norte 40 Norte 0 -- -- 49
2017-08-09 20:00:00 15.1 26 Norte 42 Norte 0 -- -- 45
2017-08-09 19:00:00 17.1 25 Norte 45 Nordeste 0 -- -- 44
2017-08-09 18:00:00 17.4 26 Norte 44 Norte 0 -- -- 42
2017-08-09 17:00:00 18.2 22 Norte 41 Norte 0 -- -- 40
2017-08-09 16:00:00 18.3 23 Norte 41 Norte 0 -- -- 37
2017-08-09 15:00:00 18.3 19 Norte 33 Noroeste 0 -- -- 40
2017-08-09 14:00:00 18 14 Noroeste 36 Noroeste 0 -- -- 37
2017-08-09 13:00:00 16.5 15 Norte 32 Norte 0 -- -- 43
2017-08-09 12:00:00 16 21 Norte 33 Norte 0 -- -- 47
2017-08-09 11:00:00 15.2 15 Noroeste 26 Norte 0 -- -- 54
2017-08-09 10:00:00 13.1 9 Noroeste 20 Noroeste 0 -- -- 63
2017-08-09 09:00:00 10 10 Noroeste 17 Noroeste 0 -- -- 81
2017-08-09 08:00:00 7.6 8 Norte 11 Noroeste 0 -- -- 87
2017-08-09 07:00:00 7.3 8 Noroeste 10 Noroeste 0 -- -- 89
2017-08-09 06:00:00 8.1 6 Noroeste 13 Noroeste 0 -- -- 88
2017-08-09 05:00:00 8.3 9 Noroeste 12 Noroeste 0 -- -- 88
2017-08-09 04:00:00 8.8 8 Norte 11 Noroeste 0 -- -- 86
2017-08-09 03:00:00 9.4 7 Norte 11 Norte 0 -- -- 84
2017-08-09 02:00:00 10.3 6 Norte 9 Nordeste 0 -- -- 81
2017-08-09 01:00:00 11.2 5 Norte 14 Norte 0 -- -- 80
2017-08-09 00:00:00 12.4 8 Nordeste 16 Nordeste 0 -- -- 72
2017-08-08 23:00:00 13.6 8 Norte 16 Norte 0 -- -- 68
2017-08-08 22:00:00 16.5 12 Norte 22 Noroeste 0 -- -- 54
2017-08-08 21:00:00 20 14 Noroeste 34 Noroeste 0 -- -- 37
2017-08-08 20:00:00 21.8 17 Noroeste 28 Oeste 0 -- -- 33
2017-08-08 19:00:00 23 17 Noroeste 26 Noroeste 0 -- -- 30
2017-08-08 18:00:00 23.2 10 Noroeste 22 Oeste 0 -- -- 28
2017-08-08 17:00:00 22.1 6 Nordeste 22 Noroeste 0 -- -- 32
2017-08-08 16:00:00 21.7 8 Sudoeste 19 Sudoeste 0 -- -- 38
2017-08-08 15:00:00 20.9 9 Noroeste 20 Noroeste 0 -- -- 38
2017-08-08 14:00:00 19.9 7 Norte 18 Oeste 0 -- -- 41
2017-08-08 13:00:00 18.5 13 Noroeste 24 Noroeste 0 -- -- 44
2017-08-08 12:00:00 17.8 14 Noroeste 23 Noroeste 0 -- -- 47
2017-08-08 11:00:00 15.4 9 Noroeste 24 Noroeste 0 -- -- 57
2017-08-08 10:00:00 13 15 Noroeste 23 Noroeste 0 -- -- 69
2017-08-08 09:00:00 10.6 9 Noroeste 16 Noroeste 0 -- -- 80
2017-08-08 08:00:00 8.7 5 Noroeste 14 Noroeste 0 -- -- 89
2017-08-08 07:00:00 8.6 8 Noroeste 17 Noroeste 0 -- -- 91
2017-08-08 06:00:00 9.1 7 Noroeste 15 Noroeste 0 -- -- 90
2017-08-08 05:00:00 9.6 9 Noroeste 19 Noroeste 0 -- -- 90
2017-08-08 04:00:00 10.3 13 Noroeste 23 Noroeste 0 -- -- 88
2017-08-08 03:00:00 11 9 Noroeste 28 Noroeste 0 -- -- 85
2017-08-08 02:00:00 11.7 14 Noroeste 22 Noroeste 0 -- -- 83
2017-08-08 01:00:00 12.2 9 Noroeste 24 Norte 0 -- -- 82
2017-08-08 00:00:00 14.1 12 Noroeste 21 Noroeste 0 -- -- 70
2017-08-07 23:00:00 15.1 15 Noroeste 28 Norte 0 -- -- 67
2017-08-07 22:00:00 17 12 Noroeste 37 Noroeste 0 -- -- 64
2017-08-07 21:00:00 20.1 18 Noroeste 37 Noroeste 0 -- -- 50
2017-08-07 20:00:00 23 22 Noroeste 38 Noroeste 0 -- -- 42
2017-08-07 19:00:00 22.4 24 Noroeste 35 Noroeste 0 -- -- 45
2017-08-07 18:00:00 23.4 24 Noroeste 39 Oeste 0 -- -- 48
2017-08-07 17:00:00 25.9 19 Noroeste 28 Noroeste 0 -- -- 44
2017-08-07 16:00:00 26.4 4 Norte 15 Sur 0 -- -- 42
2017-08-07 15:00:00 24.5 10 Sudoeste 19 Sur 0 -- -- 49
2017-08-07 14:00:00 24.3 10 Sur 17 Sur 0 -- -- 50
2017-08-07 13:00:00 22.3 6 Sudoeste 12 Sudoeste 0 -- -- 56
2017-08-07 12:00:00 20.6 5 Sudeste 10 Este 0 -- -- 60
2017-08-07 11:00:00 18.8 4 Sur 8 Sudoeste 0 -- -- 65
2017-08-07 10:00:00 16.5 3 Oeste 10 Oeste 0 -- -- 71
2017-08-07 09:00:00 14.1 4 Noroeste 10 Noroeste 0 -- -- 83
2017-08-07 08:00:00 11.4 6 Noroeste 10 Noroeste 0 -- -- 91
2017-08-07 07:00:00 10.7 5 Noroeste 9 Noroeste 0 -- -- 90
2017-08-07 06:00:00 11.2 6 Noroeste 8 Noroeste 0 -- -- 90
2017-08-07 05:00:00 11.9 5 Oeste 8 Noroeste 0 -- -- 90
2017-08-07 04:00:00 12.4 2 Sudoeste 7 Noroeste 0 -- -- 87
2017-08-07 03:00:00 13.6 0 Calma 13 Este 0 -- -- 82
2017-08-07 02:00:00 14.6 7 Nordeste 17 Este 0 -- -- 76
2017-08-07 01:00:00 15.5 9 Este 17 Este 0 -- -- 72
2017-08-07 00:00:00 17.2 13 Este 23 Este 0 -- -- 64
2017-08-06 23:00:00 18.8 9 Este 19 Sudeste 0 -- -- 59
2017-08-06 22:00:00 22.8 10 Sudeste -- -- 0 -- -- 53
2017-08-06 21:00:00 25.6 5 Sur 13 Sur 0 -- -- 46
2017-08-06 20:00:00 26.7 9 Sur 17 Sur 0 -- -- 38
2017-08-06 19:00:00 27.2 11 Sur 18 Sur 0 -- -- 38
2017-08-06 18:00:00 27.4 10 Sur 21 Sudeste 0 -- -- 36
2017-08-06 17:00:00 27.1 12 Sur 28 Sur 0 -- -- 36
2017-08-06 16:00:00 26.1 10 Sudeste 25 Este 0 -- -- 40
2017-08-06 15:00:00 24.4 12 Este 19 Este 0 -- -- 43
2017-08-06 14:00:00 22.9 9 Este 19 Este 0 -- -- 47
2017-08-06 13:00:00 21.8 8 Sudeste 22 Este 0 -- -- 49
2017-08-06 12:00:00 20.2 8 Este 19 Sudeste 0 -- -- 54
2017-08-06 11:00:00 18.8 10 Este 22 Este 0 -- -- 57
2017-08-06 10:00:00 17.5 8 Nordeste 13 Nordeste 0 -- -- 62
2017-08-06 09:00:00 14.9 6 Nordeste 10 Nordeste 0 -- -- 74
2017-08-06 08:00:00 11.4 3 Norte 10 Norte 0 -- -- 87
2017-08-06 07:00:00 11 5 Norte 10 Nordeste 0 -- -- 87
2017-08-06 06:00:00 11.2 7 Norte 9 Nordeste 0 -- -- 87
2017-08-06 05:00:00 11.9 5 Nordeste 11 Nordeste 0 -- -- 85
2017-08-06 04:00:00 12.4 6 Nordeste 9 Nordeste 0 -- -- 84
2017-08-06 03:00:00 13 5 Norte 9 Nordeste 0 -- -- 82
2017-08-06 02:00:00 14 5 Nordeste 10 Nordeste 0 -- -- 77
2017-08-06 01:00:00 14.8 6 Nordeste 12 Nordeste 0 -- -- 73
2017-08-06 00:00:00 15.7 8 Nordeste 24 Norte 0 -- -- 69
2017-08-05 23:00:00 17.1 12 Norte 30 Nordeste 0 -- -- 63
2017-08-05 22:00:00 18.5 17 Norte 33 Norte 0 -- -- 58
2017-08-05 21:00:00 20.8 17 Norte 28 Norte 0 -- -- 56
2017-08-05 20:00:00 22.9 15 Nordeste 39 Norte 0 -- -- 54
2017-08-05 19:00:00 24.6 24 Nordeste 43 Norte 0 -- -- 50
2017-08-05 18:00:00 27.2 14 Nordeste 31 Nordeste 0 -- -- 45
2017-08-05 17:00:00 29.7 8 Sudeste 24 Sur 0 -- -- 37
2017-08-05 16:00:00 28.9 9 Sudeste 22 Sur 0 -- -- 42
2017-08-05 15:00:00 27.9 12 Sur 22 Sudeste 0 -- -- 49
2017-08-05 14:00:00 27.2 10 Sur 18 Este 0 -- -- 50
2017-08-05 13:00:00 26.2 9 Sudeste 18 Este 0 -- -- 52
2017-08-05 12:00:00 24.4 4 Nordeste 15 Este 0 -- -- 59
2017-08-05 11:00:00 23.3 4 Nordeste 16 Norte 0 -- -- 62
2017-08-05 10:00:00 20.7 6 Norte 13 Noroeste 0 -- -- 73
2017-08-05 09:00:00 18.7 5 Noroeste 9 Norte 0 -- -- 83
2017-08-05 08:00:00 16.3 5 Norte 12 Noroeste 0 -- -- 91
2017-08-05 07:00:00 15.4 8 Norte 18 Norte 0 -- -- 90
2017-08-05 06:00:00 15.7 8 Norte 13 Norte 0 -- -- 89
2017-08-05 05:00:00 17.2 5 Nordeste 20 Noroeste 0 -- -- 84
2017-08-05 04:00:00 19 10 Noroeste 19 Noroeste 0 -- -- 83
2017-08-05 03:00:00 19.2 17 Noroeste 23 Noroeste 0 -- -- 83
2017-08-05 02:00:00 19.3 5 Norte 12 Noroeste 0 -- -- 79
2017-08-05 01:00:00 20.7 5 Noroeste 15 Noroeste 0 -- -- 73
2017-08-05 00:00:00 21.6 9 Noroeste 14 Noroeste 0 -- -- 68
2017-08-04 23:00:00 22.8 9 Noroeste 20 Noroeste 0 -- -- 63
2017-08-04 22:00:00 25.5 11 Noroeste 28 Oeste 0 -- -- 53
2017-08-04 21:00:00 28.6 18 Noroeste 32 Noroeste 0 -- -- 43
2017-08-04 20:00:00 31.2 19 Noroeste 31 Oeste 0 -- -- 36
2017-08-04 19:00:00 32.4 6 Noroeste 15 Sudeste 0 -- -- 37
2017-08-04 18:00:00 32.2 6 Sur 13 Sudoeste 0 -- -- 39
2017-08-04 17:00:00 31.8 6 Sur 10 Sudeste 0 -- -- 38
2017-08-04 16:00:00 30.4 3 Noroeste 18 Sur 0 -- -- 41
2017-08-04 15:00:00 29.9 7 Sur 21 Sur 0 -- -- 43
2017-08-04 14:00:00 28.3 9 Sur 26 Noroeste 0 -- -- 48
2017-08-04 13:00:00 27 12 Noroeste 28 Noroeste 0 -- -- 51
2017-08-04 12:00:00 25.3 19 Oeste 29 Oeste 0 -- -- 55
2017-08-04 11:00:00 23.3 21 Noroeste 42 Noroeste 0 -- -- 63
2017-08-04 10:00:00 21.5 28 Noroeste 40 Oeste 0 -- -- 69
2017-08-04 09:00:00 19.9 23 Noroeste 35 Noroeste 0 -- -- 75
2017-08-04 08:00:00 17.7 15 Noroeste 23 Oeste 0 -- -- 84
2017-08-04 07:00:00 17.4 17 Oeste 26 Noroeste 0 -- -- 83
2017-08-04 06:00:00 18 17 Noroeste 28 Noroeste 0 -- -- 81
2017-08-04 05:00:00 17.9 12 Oeste 24 Noroeste 0 -- -- 81
2017-08-04 04:00:00 18.7 10 Noroeste 30 Noroeste 0 -- -- 78
2017-08-04 03:00:00 19.6 22 Noroeste 31 Noroeste 0 -- -- 73
2017-08-04 02:00:00 19.3 9 Noroeste 20 Noroeste 0 -- -- 73
2017-08-04 01:00:00 20.7 15 Oeste 24 Oeste 0 -- -- 66
2017-08-04 00:00:00 21.8 15 Oeste 33 Oeste 0 -- -- 60
2017-08-03 23:00:00 22.9 17 Oeste 30 Oeste 0 -- -- 55
2017-08-03 22:00:00 24.5 21 Oeste 35 Oeste 0 -- -- 49
2017-08-03 21:00:00 26.8 19 Oeste 37 Oeste 0 -- -- 42
2017-08-03 20:00:00 28.8 23 Oeste 37 Noroeste 0 -- -- 35
2017-08-03 19:00:00 30.2 22 Noroeste 32 Noroeste 0 -- -- 32
2017-08-03 18:00:00 30.7 6 Sur 19 Sur 0 -- -- 34
2017-08-03 17:00:00 29.7 9 Sur 21 Sur 0 -- -- 35
2017-08-03 16:00:00 28.8 8 Sudeste 22 Sur 0 -- -- 38
2017-08-03 15:00:00 27.6 11 Sudeste 22 Sudeste 0 -- -- 44
2017-08-03 14:00:00 26.4 10 Noroeste 23 Oeste 0 -- -- 46
2017-08-03 13:00:00 25.1 9 Oeste 23 Noroeste 0 -- -- 49
2017-08-03 12:00:00 23.8 13 Noroeste 24 Oeste 0 -- -- 56
2017-08-03 11:00:00 22.7 17 Noroeste 32 Noroeste 0 -- -- 60
2017-08-03 10:00:00 21.1 19 Oeste 28 Oeste 0 -- -- 64
2017-08-03 09:00:00 18.8 10 Oeste 17 Oeste 0 -- -- 67
2017-08-03 08:00:00 16.2 12 Oeste 20 Oeste 0 -- -- 77
2017-08-03 07:00:00 15.3 13 Noroeste 21 Noroeste 0 -- -- 79
2017-08-03 06:00:00 15.5 11 Noroeste 18 Noroeste 0 -- -- 78
2017-08-03 05:00:00 16.7 14 Noroeste 24 Oeste 0 -- -- 72
2017-08-03 04:00:00 17.3 17 Noroeste 24 Noroeste 0 -- -- 68
2017-08-03 03:00:00 17.1 7 Noroeste 15 Noroeste 0 -- -- 67
2017-08-03 02:00:00 18.1 13 Noroeste 20 Noroeste 0 -- -- 57
2017-08-03 01:00:00 17.9 13 Noroeste 16 Noroeste 0 -- -- 55
2017-08-03 00:00:00 18.7 8 Noroeste 15 Oeste 0 -- -- 50
2017-08-02 23:00:00 20 11 Oeste 18 Oeste 0 -- -- 41
2017-08-02 22:00:00 22.8 13 Oeste 21 Oeste 0 -- -- 32
2017-08-02 21:00:00 26.9 13 Oeste 28 Sudeste 0 -- -- 29
2017-08-02 20:00:00 29.3 13 Sudeste 21 Sudeste 0 -- -- 25
2017-08-02 19:00:00 30 11 Sudeste 23 Este 0 -- -- 22
2017-08-02 18:00:00 29.7 13 Sudeste 26 Este 0 -- -- 24
2017-08-02 17:00:00 29.2 10 Sudeste 35 Sur 0 -- -- 26
2017-08-02 16:00:00 28.3 8 Este 18 Sudoeste 0 -- -- 29
2017-08-02 15:00:00 27.4 8 Sudeste 18 Sudeste 0 -- -- 33
2017-08-02 14:00:00 25.6 8 Sudoeste 26 Sudoeste 0 -- -- 37
2017-08-02 13:00:00 23.8 7 Sur 14 Sur 0 -- -- 46
2017-08-02 12:00:00 22.4 5 Sur 9 Sur 0 -- -- 48
2017-08-02 11:00:00 20.1 5 Sudeste 10 Este 0 -- -- 60
2017-08-02 10:00:00 17.4 4 Norte 13 Noroeste 0 -- -- 72
2017-08-02 09:00:00 13.2 8 Noroeste 12 Noroeste 0 -- -- 82
2017-08-02 08:00:00 10.1 9 Noroeste 12 Noroeste 0 -- -- 91
2017-08-02 07:00:00 9.5 8 Norte 11 Norte 0 -- -- 91
2017-08-02 06:00:00 10.1 8 Norte 13 Norte 0 -- -- 90
2017-08-02 05:00:00 10.5 8 Noroeste 13 Noroeste 0 -- -- 87
2017-08-02 04:00:00 11.7 5 Norte 10 Nordeste 0 -- -- 81
2017-08-02 03:00:00 12.9 6 Nordeste 12 Nordeste 0 -- -- 75
2017-08-02 02:00:00 13.5 9 Noroeste 12 Noroeste 0 -- -- 70
2017-08-02 01:00:00 15.2 7 Noroeste 16 Noroeste 0 -- -- 62
2017-08-02 00:00:00 16.5 10 Noroeste 17 Noroeste 0 -- -- 56
2017-08-01 23:00:00 18.3 11 Oeste 18 Oeste 0 -- -- 51
2017-08-01 22:00:00 20.6 12 Oeste 22 Noroeste 0 -- -- 48
2017-08-01 21:00:00 24.3 12 Oeste 28 Oeste 0 -- -- 41
2017-08-01 20:00:00 26.3 16 Sudoeste 27 Sudoeste 0 -- -- 26
2017-08-01 19:00:00 27 14 Sudeste 24 Este 0 -- -- 32
2017-08-01 18:00:00 26.4 12 Sudeste 23 Este 0 -- -- 34
2017-08-01 17:00:00 26.2 9 Sudeste 24 Sur 0 -- -- 36
2017-08-01 16:00:00 25.3 9 Sudeste 19 Sur 0 -- -- 36
2017-08-01 15:00:00 24.2 10 Sur 22 Sudoeste 0 -- -- 34
2017-08-01 14:00:00 23.4 10 Sur 19 Sur 0 -- -- 40
2017-08-01 13:00:00 22.3 8 Sur 15 Sudoeste 0 -- -- 50
2017-08-01 12:00:00 20.8 6 Sudeste 13 Este 0 -- -- 56
2017-08-01 11:00:00 19.3 4 Este 9 Sudeste 0 -- -- 61
2017-08-01 10:00:00 16.9 4 Norte 13 Noroeste 0 -- -- 70
2017-08-01 09:00:00 14.1 6 Norte 10 Noroeste 0 -- -- 82
2017-08-01 08:00:00 12.1 6 Norte 11 Noroeste 0 -- -- 87
2017-08-01 07:00:00 13.2 6 Noroeste 10 Noroeste 0 -- -- 83
2017-08-01 06:00:00 12.7 8 Noroeste 12 Noroeste 0 -- -- 86
2017-08-01 05:00:00 11.8 8 Norte 14 Norte 0 -- -- 88
2017-08-01 04:00:00 12.5 7 Norte 12 Noroeste 0 -- -- 86
2017-08-01 03:00:00 13.4 7 Norte 13 Norte 0 -- -- 82
2017-08-01 02:00:00 14.3 9 Norte 14 Norte 0 -- -- 78
2017-08-01 01:00:00 15 7 Norte 13 Norte 0 -- -- 76
2017-08-01 00:00:00 15.9 9 Norte 12 Norte 0 -- -- 71
2017-07-31 23:00:00 17.4 5 Noroeste 11 Noroeste 0 -- -- 65
2017-07-31 22:00:00 18.5 8 Noroeste 14 Noroeste 0 -- -- 58
2017-07-31 21:00:00 20.3 5 Oeste 9 Oeste 0 -- -- 60
2017-07-31 20:00:00 21.6 3 Sudoeste 9 Sur 0 -- -- 53
2017-07-31 19:00:00 21.6 5 Sur 10 Sudoeste 0 -- -- 47
2017-07-31 18:00:00 21.6 5 Sur 10 Sur 0 -- -- 44
2017-07-31 17:00:00 21.4 3 Sudeste 13 Sur 0 -- -- 49
2017-07-31 16:00:00 20.7 6 Sur 12 Sur 0 -- -- 54
2017-07-31 15:00:00 20.2 5 Sur 13 Sudoeste 0 -- -- 53
2017-07-31 14:00:00 19.5 4 Sudoeste 10 Sur 0 -- -- 58
2017-07-31 13:00:00 17.6 4 Oeste 8 Sudoeste 0 -- -- 64
2017-07-31 12:00:00 16.7 4 Sudoeste 10 Oeste 0 -- -- 70
2017-07-31 11:00:00 15.4 6 Noroeste 12 Noroeste 0 -- -- 71
2017-07-31 10:00:00 13.9 7 Noroeste 11 Oeste 0 -- -- 78
2017-07-31 09:00:00 12.8 3 Noroeste 13 Noroeste 0 -- -- 83
2017-07-31 08:00:00 11.7 4 Noroeste 15 Oeste 0 -- -- 84
2017-07-31 07:00:00 10.9 7 Norte 11 Norte 0 -- -- 88
2017-07-31 06:00:00 10.7 5 Norte 8 Norte 0 -- -- 88
2017-07-31 05:00:00 11.2 5 Norte 9 Noroeste 0 -- -- 86
2017-07-31 04:00:00 12.5 0 Calma 9 Noroeste 0 -- -- 81
2017-07-31 03:00:00 13.2 5 Noroeste 9 Noroeste 0 -- -- 77
2017-07-31 02:00:00 13.7 6 Norte 14 Nordeste 0 -- -- 75
2017-07-31 01:00:00 14.5 9 Norte 21 Noroeste 0 -- -- 71
2017-07-31 00:00:00 16 15 Noroeste 20 Noroeste 0 -- -- 61
2017-07-30 23:00:00 17.5 9 Noroeste 17 Noroeste 0 -- -- 58
2017-07-30 22:00:00 19.6 12 Noroeste 23 Noroeste 0 -- -- 48
2017-07-30 21:00:00 23 17 Noroeste 28 Noroeste 0 -- -- 39
2017-07-30 20:00:00 23.8 19 Noroeste 30 Noroeste 0 -- -- 38
2017-07-30 19:00:00 25.3 18 Noroeste 34 Noroeste 0 -- -- 35
2017-07-30 18:00:00 24.4 22 Noroeste 35 Noroeste 0 -- -- 39
2017-07-30 17:00:00 27.7 13 Noroeste 27 Oeste 0 -- -- 33
2017-07-30 16:00:00 27.2 6 Sudoeste 12 Noroeste 0 -- -- 31
2017-07-30 15:00:00 26.3 5 Sudeste 17 Sudoeste 0 -- -- 36
2017-07-30 14:00:00 24.3 8 Sudeste 19 Sudeste 0 -- -- 41
2017-07-30 13:00:00 22.5 10 Sudoeste 16 Sudoeste 0 -- -- 43
2017-07-30 12:00:00 21.5 7 Sudoeste 15 Sudoeste 0 -- -- 49
2017-07-30 11:00:00 19.5 8 Oeste 17 Oeste 0 -- -- 55
2017-07-30 10:00:00 17.9 7 Oeste 18 Oeste 0 -- -- 67
2017-07-30 09:00:00 15.5 8 Oeste 11 Oeste 0 -- -- 79
2017-07-30 08:00:00 13.5 7 Noroeste 9 Noroeste 0 -- -- 85
2017-07-30 07:00:00 13.6 4 Oeste 12 Oeste 0 -- -- 83
2017-07-30 06:00:00 14.9 7 Noroeste 29 Noroeste 0 -- -- 77
2017-07-30 05:00:00 16.1 23 Noroeste 34 Noroeste 0 -- -- 71
2017-07-30 04:00:00 16.4 19 Noroeste 31 Noroeste 0 -- -- 70
2017-07-30 03:00:00 17 15 Noroeste 26 Oeste 0 -- -- 68
2017-07-30 02:00:00 17.9 15 Noroeste 26 Noroeste 0 -- -- 63
2017-07-30 01:00:00 19.2 14 Noroeste 22 Oeste 0 -- -- 59
2017-07-30 00:00:00 20.7 16 Oeste 28 Noroeste 0 -- -- 55
2017-07-29 23:00:00 22.3 14 Oeste 27 Oeste 0 -- -- 54
2017-07-29 22:00:00 23.7 9 Oeste 26 Oeste 0 -- -- 48
2017-07-29 21:00:00 27.1 17 Noroeste 29 Oeste 0 -- -- 35
2017-07-29 20:00:00 29.3 18 Oeste 33 Noroeste 0 -- -- 35
2017-07-29 19:00:00 30.5 4 Oeste 14 Noroeste 0 -- -- 35
2017-07-29 18:00:00 29.4 6 Este 15 Este 0.2 -- -- 38
2017-07-29 17:00:00 30.3 8 Sudeste 16 Sur 0 -- -- 33
2017-07-29 16:00:00 29 9 Sudoeste 23 Sur 0 -- -- 37
2017-07-29 15:00:00 28.5 14 Sur 24 Sur 0 -- -- 40
2017-07-29 14:00:00 26.8 7 Oeste 23 Noroeste 0 -- -- 37
2017-07-29 13:00:00 25 12 Oeste 29 Oeste 0 -- -- 45
2017-07-29 12:00:00 23.3 17 Oeste 29 Oeste 0 -- -- 53
2017-07-29 11:00:00 21.9 20 Oeste 29 Oeste 0 -- -- 61
2017-07-29 10:00:00 20.4 17 Oeste 26 Oeste 0 -- -- 70
2017-07-29 09:00:00 19 14 Oeste 23 Oeste 0 -- -- 76
2017-07-29 08:00:00 16.5 10 Noroeste 17 Oeste 0 -- -- 87
2017-07-29 07:00:00 15.9 10 Noroeste 15 Noroeste 0 -- -- 87
2017-07-29 06:00:00 15.4 10 Noroeste 13 Noroeste 0 -- -- 87
2017-07-29 05:00:00 16.3 7 Noroeste 17 Noroeste 0 -- -- 83
2017-07-29 04:00:00 17.9 13 Noroeste 21 Noroeste 0 -- -- 78
2017-07-29 03:00:00 18.4 9 Noroeste 19 Noroeste 0 -- -- 76
2017-07-29 02:00:00 19.6 12 Noroeste 22 Noroeste 0 -- -- 71
2017-07-29 01:00:00 20.1 13 Noroeste 27 Noroeste 0 -- -- 66
2017-07-29 00:00:00 21.6 18 Noroeste 29 Oeste 0 -- -- 54
2017-07-28 23:00:00 22.3 14 Noroeste 27 Noroeste 0 -- -- 49
2017-07-28 22:00:00 24.2 12 Noroeste 28 Oeste 0 -- -- 45
2017-07-28 21:00:00 26 13 Noroeste 27 Oeste 0 -- -- 40
2017-07-28 20:00:00 30.2 8 Sudeste 14 Sudeste 0 -- -- 30
2017-07-28 19:00:00 30.7 11 Sudeste 21 Sudeste 0 -- -- 27
2017-07-28 18:00:00 30.4 14 Sudeste 23 Sudeste 0 -- -- 29
2017-07-28 17:00:00 29.8 13 Sudeste 24 Sur 0 -- -- 31
2017-07-28 16:00:00 29.1 15 Sudeste 23 Sudoeste 0 -- -- 34
2017-07-28 15:00:00 28.2 11 Sudeste 20 Sudeste 0 -- -- 32
2017-07-28 14:00:00 26.5 8 Sur 15 Sudeste 0 -- -- 34
2017-07-28 13:00:00 24.9 6 Sudeste 10 Sudoeste 0 -- -- 34
2017-07-28 12:00:00 23 3 Sudoeste 13 Noroeste 0 -- -- 41
2017-07-28 11:00:00 21.3 6 Noroeste 16 Noroeste 0 -- -- 52
2017-07-28 10:00:00 18.4 12 Norte 21 Norte 0 -- -- 61
2017-07-28 09:00:00 16.1 8 Noroeste 14 Noroeste 0 -- -- 77
2017-07-28 08:00:00 13 8 Noroeste 16 Norte 0 -- -- 87
2017-07-28 07:00:00 13 10 Noroeste 15 Noroeste 0 -- -- 89
2017-07-28 06:00:00 14.1 10 Noroeste 15 Noroeste 0 -- -- 87
2017-07-28 05:00:00 14.9 10 Noroeste 26 Noroeste 0 -- -- 83
2017-07-28 04:00:00 17.1 22 Noroeste 32 Noroeste 0 -- -- 75
2017-07-28 03:00:00 18 15 Noroeste 23 Noroeste 0 -- -- 72
2017-07-28 02:00:00 18.8 14 Noroeste 26 Oeste 0 -- -- 71
2017-07-28 01:00:00 19.9 16 Oeste 33 Noroeste 0 -- -- 70
2017-07-28 00:00:00 21.1 22 Noroeste 29 Noroeste 0 -- -- 65
2017-07-27 23:00:00 22.2 18 Noroeste 31 Noroeste 0 -- -- 60
2017-07-27 22:00:00 23.8 18 Noroeste 40 Noroeste 0 -- -- 54
2017-07-27 21:00:00 26.2 23 Noroeste 44 Noroeste 0 -- -- 47
2017-07-27 20:00:00 27.9 30 Noroeste 47 Noroeste 0 -- -- 43
2017-07-27 19:00:00 30 24 Noroeste 36 Noroeste 0 -- -- 36
2017-07-27 18:00:00 31.1 22 Noroeste 33 Oeste 0 -- -- 33
2017-07-27 17:00:00 31.2 11 Oeste 27 Oeste 0 -- -- 30
2017-07-27 16:00:00 30.6 12 Sur 27 Noroeste 0 -- -- 32
2017-07-27 15:00:00 29.8 11 Oeste 24 Oeste 0 -- -- 32
2017-07-27 14:00:00 28.8 12 Noroeste 28 Oeste 0 -- -- 34
2017-07-27 13:00:00 27.6 18 Oeste 28 Oeste 0 -- -- 35
2017-07-27 12:00:00 26.9 17 Noroeste 25 Noroeste 0 -- -- 36
2017-07-27 11:00:00 23.5 8 Noroeste 17 Oeste 0 -- -- 48
2017-07-27 10:00:00 20.6 10 Noroeste 21 Noroeste 0 -- -- 54
2017-07-27 09:00:00 17 6 Noroeste 17 Norte 0 -- -- 62
2017-07-27 08:00:00 13 13 Noroeste 18 Noroeste 0 -- -- 75
2017-07-27 07:00:00 12.1 12 Norte 16 Norte 0 -- -- 79
2017-07-27 06:00:00 11.7 8 Noroeste 12 Noroeste 0 -- -- 82
2017-07-27 05:00:00 12.5 10 Norte 13 Noroeste 0 -- -- 78
2017-07-27 04:00:00 13.8 8 Noroeste 10 Noroeste 0 -- -- 74
2017-07-27 03:00:00 15.6 8 Norte 12 Noroeste 0 -- -- 70
2017-07-27 02:00:00 16.3 4 Norte 10 Norte 0 -- -- 66
2017-07-27 01:00:00 18.6 6 Norte 19 Noroeste 0 -- -- 55
2017-07-27 00:00:00 20.2 13 Noroeste 23 Noroeste 0 -- -- 44
2017-07-26 23:00:00 20.5 12 Noroeste 20 Oeste 0 -- -- 45
2017-07-26 22:00:00 23.5 15 Oeste 21 Noroeste 0 -- -- 37
2017-07-26 21:00:00 26.5 17 Oeste 27 Noroeste 0 -- -- 28
2017-07-26 20:00:00 28.7 14 Oeste 25 Noroeste 0 -- -- 27
2017-07-26 19:00:00 30.4 19 Oeste 31 Noroeste 0 -- -- 21
2017-07-26 18:00:00 31.1 14 Oeste 24 Oeste 0 -- -- 22
2017-07-26 17:00:00 29.5 12 Sudeste 22 Sudeste 0 -- -- 30
2017-07-26 16:00:00 28.3 8 Sudeste 19 Este 0 -- -- 32
2017-07-26 15:00:00 27.3 9 Sudeste 15 Sur 0 -- -- 35
2017-07-26 14:00:00 25.2 9 Sur 15 Sur 0 -- -- 44
2017-07-26 13:00:00 22.7 6 Sudoeste 15 Sudeste 0 -- -- 48
2017-07-26 12:00:00 20.7 6 Sur 15 Sur 0 -- -- 52
2017-07-26 11:00:00 18.9 5 Sur 12 Sur 0 -- -- 56
2017-07-26 10:00:00 16.6 5 Sudoeste 11 Sudoeste 0 -- -- 64
2017-07-26 09:00:00 14.5 3 Oeste 6 Noroeste 0 -- -- 73
2017-07-26 08:00:00 11.3 5 Norte 8 Norte 0 -- -- 89
2017-07-26 07:00:00 10.9 5 Noroeste 6 Noroeste 0 -- -- 89
2017-07-26 06:00:00 11.8 0 Calma 5 Sur 0 -- -- 88
2017-07-26 05:00:00 12.3 0 Calma 6 Sudeste 0 -- -- 85
2017-07-26 04:00:00 13.3 0 Calma 4 Oeste 0 -- -- 82
2017-07-26 03:00:00 13.7 4 Oeste 14 Sudoeste 0 -- -- 79
2017-07-26 02:00:00 15 4 Este 14 Este 0 -- -- 67
2017-07-26 01:00:00 15.3 7 Este 19 Este 0 -- -- 67
2017-07-26 00:00:00 16.9 8 Nordeste 17 Nordeste 0 -- -- 61
2017-07-25 23:00:00 18.8 13 Nordeste 25 Nordeste 0 -- -- 50
2017-07-25 22:00:00 20.1 11 Este 26 Norte 0 -- -- 50
2017-07-25 21:00:00 22.6 17 Nordeste 31 Nordeste 0 -- -- 45
2017-07-25 20:00:00 24.8 13 Nordeste 26 Nordeste 0 -- -- 40
2017-07-25 19:00:00 26.7 17 Nordeste 26 Nordeste 0 -- -- 34
2017-07-25 18:00:00 27 4 Sur 19 Sur 0 -- -- 33
2017-07-25 17:00:00 26.2 10 Sur 20 Sur 0 -- -- 34
2017-07-25 16:00:00 25.2 11 Sudeste 19 Sur 0 -- -- 37
2017-07-25 15:00:00 24.2 8 Sur 19 Sudeste 0 -- -- 41
2017-07-25 14:00:00 22.9 5 Sudeste 15 Este 0 -- -- 42
2017-07-25 13:00:00 20.9 3 Sudeste 11 Este 0 -- -- 46
2017-07-25 12:00:00 18.4 5 Sudoeste 10 Norte 0 -- -- 55
2017-07-25 11:00:00 16.7 3 Sur 10 Oeste 0 -- -- 64
2017-07-25 10:00:00 15.3 4 Sur 9 Sur 0 -- -- 70
2017-07-25 09:00:00 13.5 3 Noroeste 9 Norte 0 -- -- 75
2017-07-25 08:00:00 10 6 Norte 10 Noroeste 0 -- -- 85
2017-07-25 07:00:00 8.8 6 Norte 9 Noroeste 0 -- -- 90
2017-07-25 06:00:00 9.5 3 Oeste 5 Nordeste 0 -- -- 87
2017-07-25 05:00:00 10 0 Calma 15 Este 0 -- -- 84
2017-07-25 04:00:00 11.3 9 Este 12 Este 0 -- -- 75
2017-07-25 03:00:00 11.5 3 Este 12 Nordeste 0 -- -- 76
2017-07-25 02:00:00 12.5 6 Nordeste 22 Norte 0 -- -- 73
2017-07-25 01:00:00 14 11 Norte 18 Norte 0 -- -- 69
2017-07-25 00:00:00 14.8 10 Norte 19 Noroeste 0 -- -- 65
2017-07-24 23:00:00 15.4 8 Norte 20 Nordeste 0 -- -- 65
2017-07-24 22:00:00 17.9 6 Nordeste 27 Norte 0 -- -- 56
2017-07-24 21:00:00 20.2 20 Norte 32 Nordeste 0 -- -- 48
2017-07-24 20:00:00 21.7 22 Nordeste 38 Nordeste 0 -- -- 46
2017-07-24 19:00:00 23.1 23 Nordeste 36 Nordeste 0 -- -- 44
2017-07-24 18:00:00 24.3 21 Nordeste 41 Nordeste 0 -- -- 41
2017-07-24 17:00:00 25.5 22 Nordeste 33 Nordeste 0 -- -- 39
2017-07-24 16:00:00 25.4 15 Nordeste 24 Nordeste 0 -- -- 39
2017-07-24 15:00:00 25.6 6 Norte 23 Oeste 0 -- -- 36
2017-07-24 14:00:00 24.5 14 Oeste 24 Oeste 0 -- -- 41
2017-07-24 13:00:00 23.2 9 Noroeste 21 Oeste 0 -- -- 45
2017-07-24 12:00:00 21.9 10 Noroeste 25 Noroeste 0 -- -- 46
2017-07-24 11:00:00 20.2 11 Noroeste 21 Noroeste 0 -- -- 55
2017-07-24 10:00:00 18.2 13 Noroeste 21 Noroeste 0 -- -- 67
2017-07-24 09:00:00 15.8 13 Noroeste 19 Noroeste 0 -- -- 83
2017-07-24 08:00:00 13.8 10 Noroeste 15 Noroeste 0 -- -- 91
2017-07-24 07:00:00 13 8 Noroeste 15 Oeste 0 -- -- 92
2017-07-24 06:00:00 13.3 10 Oeste 15 Oeste 0 -- -- 91
2017-07-24 05:00:00 13.5 12 Oeste 15 Oeste 0 -- -- 89
2017-07-24 04:00:00 14 9 Oeste 15 Noroeste 0 -- -- 86
2017-07-24 03:00:00 14.7 8 Noroeste 24 Noroeste 0 -- -- 83
2017-07-24 02:00:00 15.9 13 Noroeste 27 Noroeste 0 -- -- 79
2017-07-24 01:00:00 17 19 Noroeste 30 Noroeste 0 -- -- 73
2017-07-24 00:00:00 18.2 18 Noroeste 29 Oeste 0 -- -- 67
2017-07-23 23:00:00 19.8 19 Noroeste 34 Noroeste 0 -- -- 61
2017-07-23 22:00:00 21.5 19 Oeste 35 Oeste 0 -- -- 53
2017-07-23 21:00:00 24.1 23 Oeste 43 Noroeste 0 -- -- 46
2017-07-23 20:00:00 26.2 22 Oeste 33 Oeste 0 -- -- 42
2017-07-23 19:00:00 27.3 21 Oeste 36 Oeste 0 -- -- 39
2017-07-23 18:00:00 27.9 19 Noroeste 35 Noroeste 0 -- -- 38
2017-07-23 17:00:00 28.1 23 Noroeste 39 Oeste 0 -- -- 34
2017-07-23 16:00:00 27.2 9 Sur 21 Sur 0 -- -- 36
2017-07-23 15:00:00 26.6 10 Sur 22 Sudoeste 0 -- -- 37
2017-07-23 14:00:00 25.4 8 Sur 18 Sur 0 -- -- 40
2017-07-23 13:00:00 23.2 6 Noroeste 18 Oeste 0 -- -- 42
2017-07-23 12:00:00 20.5 8 Oeste 16 Sudoeste 0 -- -- 49
2017-07-23 11:00:00 18.4 5 Sudoeste 14 Oeste 0 -- -- 56
2017-07-23 10:00:00 16.5 3 Norte 10 Norte 0 -- -- 56
2017-07-23 09:00:00 13.4 8 Norte 14 Noroeste 0 -- -- 68
2017-07-23 08:00:00 10.5 7 Noroeste 14 Noroeste 0 -- -- 79
2017-07-23 07:00:00 12 5 Norte 10 Noroeste 0 -- -- 81
2017-07-23 06:00:00 11.3 4 Sudoeste 6 Oeste 0 -- -- 88
2017-07-23 05:00:00 11 3 Oeste 7 Norte 0 -- -- 85
2017-07-23 04:00:00 11.3 6 Norte 12 Noroeste 0 -- -- 85
2017-07-23 03:00:00 12.4 6 Norte 13 Norte 0 -- -- 80
2017-07-23 02:00:00 13 7 Nordeste 14 Este 0 -- -- 76
2017-07-23 01:00:00 14.8 11 Noroeste 26 Noroeste 0 -- -- 64
2017-07-23 00:00:00 16.4 15 Noroeste 32 Noroeste 0 -- -- 59
2017-07-22 23:00:00 17.7 18 Noroeste 29 Noroeste 0 -- -- 54
2017-07-22 22:00:00 19.7 13 Oeste 27 Noroeste 0 -- -- 45
2017-07-22 21:00:00 22.6 17 Noroeste 30 Noroeste 0 -- -- 36
2017-07-22 20:00:00 24.3 22 Noroeste 32 Noroeste 0 -- -- 32
2017-07-22 19:00:00 25.1 22 Noroeste 36 Noroeste 0 -- -- 34
2017-07-22 18:00:00 26 8 Noroeste 24 Sudoeste 0 -- -- 39
2017-07-22 17:00:00 25.3 8 Oeste 25 Noroeste 0 -- -- 40
2017-07-22 16:00:00 24.6 6 Sudoeste 20 Sudoeste 0 -- -- 40
2017-07-22 15:00:00 23.9 9 Oeste 32 Noroeste 0 -- -- 46
2017-07-22 14:00:00 22.8 14 Noroeste 31 Oeste 0 -- -- 43
2017-07-22 13:00:00 20.9 17 Noroeste 33 Noroeste 0 -- -- 49
2017-07-22 12:00:00 20.1 18 Noroeste 30 Oeste 0 -- -- 52
2017-07-22 11:00:00 18.4 16 Oeste 25 Oeste 0 -- -- 60
2017-07-22 10:00:00 16.3 13 Noroeste 21 Noroeste 0 -- -- 66
2017-07-22 09:00:00 13.7 13 Noroeste 20 Oeste 0 -- -- 75
2017-07-22 08:00:00 12.6 15 Oeste 32 Oeste 0 -- -- 78
2017-07-22 07:00:00 12.9 20 Noroeste 31 Oeste 0 -- -- 77
2017-07-22 06:00:00 13.3 18 Noroeste 32 Noroeste 0 -- -- 71
2017-07-22 05:00:00 13.2 18 Noroeste 30 Oeste 0 -- -- 74
2017-07-22 04:00:00 13.6 17 Noroeste 26 Noroeste 0 -- -- 73
2017-07-22 03:00:00 14.1 14 Noroeste 26 Noroeste 0 -- -- 73
2017-07-22 02:00:00 14.6 14 Noroeste 22 Noroeste 0 -- -- 69
2017-07-22 01:00:00 15.6 17 Noroeste 31 Noroeste 0 -- -- 61
2017-07-22 00:00:00 16.1 11 Oeste 22 Oeste 0 -- -- 57